sensor_id;sensor_type;location;lat;lon;timestamp;temperature;humidity
14995;DHT22;7593;49.006;8.372;2024-03-02T00:00:49;5.20;99.90
14995;DHT22;7593;49.006;8.372;2024-03-02T00:03:16;5.20;99.90
14995;DHT22;7593;49.006;8.372;2024-03-02T00:05:43;5.20;99.90
14995;DHT22;7593;49.006;8.372;2024-03-02T00:08:10;5.20;99.90
14995;DHT22;7593;49.006;8.372;2024-03-02T00:10:38;5.20;99.90
14995;DHT22;7593;49.006;8.372;2024-03-02T00:13:08;5.20;99.90
14995;DHT22;7593;49.006;8.372;2024-03-02T00:15:41;5.20;99.90
14995;DHT22;7593;49.006;8.372;2024-03-02T00:18:11;5.20;99.90
14995;DHT22;7593;49.006;8.372;2024-03-02T00:20:38;5.10;99.90
14995;DHT22;7593;49.006;8.372;2024-03-02T00:23:07;5.10;99.90
14995;DHT22;7593;49.006;8.372;2024-03-02T00:25:41;5.10;99.90
14995;DHT22;7593;49.006;8.372;2024-03-02T00:28:20;5.10;99.90
14995;DHT22;7593;49.006;8.372;2024-03-02T00:31:02;5.10;99.90
14995;DHT22;7593;49.006;8.372;2024-03-02T00:33:32;5.00;99.90
14995;DHT22;7593;49.006;8.372;2024-03-02T00:36:00;5.00;99.90
14995;DHT22;7593;49.006;8.372;2024-03-02T00:38:28;5.00;99.90
14995;DHT22;7593;49.006;8.372;2024-03-02T00:40:56;5.00;99.90
14995;DHT22;7593;49.006;8.372;2024-03-02T00:43:44;5.00;99.90
14995;DHT22;7593;49.006;8.372;2024-03-02T00:46:12;5.00;99.90
14995;DHT22;7593;49.006;8.372;2024-03-02T00:48:45;5.00;99.90
14995;DHT22;7593;49.006;8.372;2024-03-02T00:51:14;5.00;99.90
14995;DHT22;7593;49.006;8.372;2024-03-02T00:53:41;4.90;99.90
14995;DHT22;7593;49.006;8.372;2024-03-02T00:56:09;4.90;99.90
14995;DHT22;7593;49.006;8.372;2024-03-02T00:58:37;4.80;99.90
14995;DHT22;7593;49.006;8.372;2024-03-02T01:01:05;4.80;99.90
14995;DHT22;7593;49.006;8.372;2024-03-02T01:03:32;4.80;99.90
14995;DHT22;7593;49.006;8.372;2024-03-02T01:05:59;4.70;99.90
14995;DHT22;7593;49.006;8.372;2024-03-02T01:08:26;4.60;99.90
14995;DHT22;7593;49.006;8.372;2024-03-02T01:10:52;4.60;99.90
14995;DHT22;7593;49.006;8.372;2024-03-02T01:13:20;4.60;99.90
14995;DHT22;7593;49.006;8.372;2024-03-02T01:15:47;4.60;99.90
14995;DHT22;7593;49.006;8.372;2024-03-02T01:18:15;4.50;99.90
14995;DHT22;7593;49.006;8.372;2024-03-02T01:20:41;4.50;99.90
14995;DHT22;7593;49.006;8.372;2024-03-02T01:23:08;4.50;99.90
14995;DHT22;7593;49.006;8.372;2024-03-02T01:25:35;4.40;99.90
14995;DHT22;7593;49.006;8.372;2024-03-02T01:28:02;4.40;99.90
14995;DHT22;7593;49.006;8.372;2024-03-02T01:30:29;4.40;99.90
14995;DHT22;7593;49.006;8.372;2024-03-02T01:32:56;4.40;99.90
14995;DHT22;7593;49.006;8.372;2024-03-02T01:35:25;4.40;99.90
14995;DHT22;7593;49.006;8.372;2024-03-02T01:37:53;4.30;99.90
14995;DHT22;7593;49.006;8.372;2024-03-02T01:40:19;4.30;99.90
14995;DHT22;7593;49.006;8.372;2024-03-02T01:42:46;4.30;99.90
14995;DHT22;7593;49.006;8.372;2024-03-02T01:45:13;4.30;99.90
14995;DHT22;7593;49.006;8.372;2024-03-02T01:47:40;4.20;99.90
14995;DHT22;7593;49.006;8.372;2024-03-02T01:50:07;4.20;99.90
14995;DHT22;7593;49.006;8.372;2024-03-02T01:52:36;4.20;99.90
14995;DHT22;7593;49.006;8.372;2024-03-02T01:55:03;4.20;99.90
14995;DHT22;7593;49.006;8.372;2024-03-02T01:57:30;4.10;99.90
14995;DHT22;7593;49.006;8.372;2024-03-02T01:59:57;4.10;99.90
14995;DHT22;7593;49.006;8.372;2024-03-02T02:02:24;4.10;99.90
14995;DHT22;7593;49.006;8.372;2024-03-02T02:04:51;4.10;99.90
14995;DHT22;7593;49.006;8.372;2024-03-02T02:07:18;4.10;99.90
14995;DHT22;7593;49.006;8.372;2024-03-02T02:09:46;4.00;99.90
14995;DHT22;7593;49.006;8.372;2024-03-02T02:12:12;4.00;99.90
14995;DHT22;7593;49.006;8.372;2024-03-02T02:14:47;3.90;99.90
14995;DHT22;7593;49.006;8.372;2024-03-02T02:17:14;3.90;99.90
14995;DHT22;7593;49.006;8.372;2024-03-02T02:19:42;3.90;99.90
14995;DHT22;7593;49.006;8.372;2024-03-02T02:22:10;3.90;99.90
14995;DHT22;7593;49.006;8.372;2024-03-02T02:24:39;3.90;99.90
14995;DHT22;7593;49.006;8.372;2024-03-02T02:27:06;3.90;99.90
14995;DHT22;7593;49.006;8.372;2024-03-02T02:29:33;3.90;99.90
14995;DHT22;7593;49.006;8.372;2024-03-02T02:32:00;3.90;99.90
14995;DHT22;7593;49.006;8.372;2024-03-02T02:34:26;3.90;99.90
14995;DHT22;7593;49.006;8.372;2024-03-02T02:36:53;3.90;99.90
14995;DHT22;7593;49.006;8.372;2024-03-02T02:39:22;3.90;99.90
14995;DHT22;7593;49.006;8.372;2024-03-02T02:41:49;3.90;99.90
14995;DHT22;7593;49.006;8.372;2024-03-02T02:44:15;3.90;99.90
14995;DHT22;7593;49.006;8.372;2024-03-02T02:46:42;3.90;99.90
14995;DHT22;7593;49.006;8.372;2024-03-02T02:49:09;3.90;99.90
14995;DHT22;7593;49.006;8.372;2024-03-02T02:51:35;3.90;99.90
14995;DHT22;7593;49.006;8.372;2024-03-02T02:54:02;3.90;99.90
14995;DHT22;7593;49.006;8.372;2024-03-02T02:56:30;3.90;99.90
14995;DHT22;7593;49.006;8.372;2024-03-02T02:58:57;3.90;99.90
14995;DHT22;7593;49.006;8.372;2024-03-02T03:01:24;3.90;99.90
14995;DHT22;7593;49.006;8.372;2024-03-02T03:03:51;3.80;99.90
14995;DHT22;7593;49.006;8.372;2024-03-02T03:06:17;3.80;99.90
14995;DHT22;7593;49.006;8.372;2024-03-02T03:08:44;3.80;99.90
14995;DHT22;7593;49.006;8.372;2024-03-02T03:11:11;3.70;99.90
14995;DHT22;7593;49.006;8.372;2024-03-02T03:13:39;3.70;99.90
14995;DHT22;7593;49.006;8.372;2024-03-02T03:16:05;3.70;99.90
14995;DHT22;7593;49.006;8.372;2024-03-02T03:18:32;3.70;99.90
14995;DHT22;7593;49.006;8.372;2024-03-02T03:20:59;3.70;99.90
14995;DHT22;7593;49.006;8.372;2024-03-02T03:23:26;3.70;99.90
14995;DHT22;7593;49.006;8.372;2024-03-02T03:25:52;3.70;99.90
14995;DHT22;7593;49.006;8.372;2024-03-02T03:28:19;3.70;99.90
14995;DHT22;7593;49.006;8.372;2024-03-02T03:30:47;3.80;99.90
14995;DHT22;7593;49.006;8.372;2024-03-02T03:33:14;3.80;99.90
14995;DHT22;7593;49.006;8.372;2024-03-02T03:35:41;3.80;99.90
14995;DHT22;7593;49.006;8.372;2024-03-02T03:38:07;3.80;99.90
14995;DHT22;7593;49.006;8.372;2024-03-02T03:40:34;3.80;99.90
14995;DHT22;7593;49.006;8.372;2024-03-02T03:43:01;3.80;99.90
14995;DHT22;7593;49.006;8.372;2024-03-02T03:45:28;3.80;99.90
14995;DHT22;7593;49.006;8.372;2024-03-02T03:47:57;3.80;99.90
14995;DHT22;7593;49.006;8.372;2024-03-02T03:50:24;3.80;99.90
14995;DHT22;7593;49.006;8.372;2024-03-02T03:52:50;3.80;99.90
14995;DHT22;7593;49.006;8.372;2024-03-02T03:55:17;3.80;99.90
14995;DHT22;7593;49.006;8.372;2024-03-02T03:57:44;3.80;99.90
14995;DHT22;7593;49.006;8.372;2024-03-02T04:00:12;3.80;99.90
14995;DHT22;7593;49.006;8.372;2024-03-02T04:02:38;3.80;99.90
14995;DHT22;7593;49.006;8.372;2024-03-02T04:05:07;3.80;99.90
14995;DHT22;7593;49.006;8.372;2024-03-02T04:07:36;3.80;99.90
14995;DHT22;7593;49.006;8.372;2024-03-02T04:10:07;3.80;99.90
14995;DHT22;7593;49.006;8.372;2024-03-02T04:12:35;3.70;99.90
14995;DHT22;7593;49.006;8.372;2024-03-02T04:15:02;3.80;99.90
14995;DHT22;7593;49.006;8.372;2024-03-02T04:17:31;3.70;99.90
14995;DHT22;7593;49.006;8.372;2024-03-02T04:19:58;3.70;99.90
14995;DHT22;7593;49.006;8.372;2024-03-02T04:22:26;3.70;99.90
14995;DHT22;7593;49.006;8.372;2024-03-02T04:24:53;3.70;99.90
14995;DHT22;7593;49.006;8.372;2024-03-02T04:27:20;3.60;99.90
14995;DHT22;7593;49.006;8.372;2024-03-02T04:29:46;3.60;99.90
14995;DHT22;7593;49.006;8.372;2024-03-02T04:32:13;3.70;99.90
14995;DHT22;7593;49.006;8.372;2024-03-02T04:34:40;3.60;99.90
14995;DHT22;7593;49.006;8.372;2024-03-02T04:37:07;3.60;99.90
14995;DHT22;7593;49.006;8.372;2024-03-02T04:39:36;3.60;99.90
14995;DHT22;7593;49.006;8.372;2024-03-02T04:42:03;3.70;99.90
14995;DHT22;7593;49.006;8.372;2024-03-02T04:44:30;3.60;99.90
14995;DHT22;7593;49.006;8.372;2024-03-02T04:46:56;3.60;99.90
14995;DHT22;7593;49.006;8.372;2024-03-02T04:49:23;3.60;99.90
14995;DHT22;7593;49.006;8.372;2024-03-02T04:51:50;3.60;99.90
14995;DHT22;7593;49.006;8.372;2024-03-02T04:54:17;3.60;99.90
14995;DHT22;7593;49.006;8.372;2024-03-02T04:56:45;3.50;99.90
14995;DHT22;7593;49.006;8.372;2024-03-02T04:59:15;3.50;99.90
14995;DHT22;7593;49.006;8.372;2024-03-02T05:01:42;3.50;99.90
14995;DHT22;7593;49.006;8.372;2024-03-02T05:04:09;3.40;99.90
14995;DHT22;7593;49.006;8.372;2024-03-02T05:06:37;3.40;99.90
14995;DHT22;7593;49.006;8.372;2024-03-02T05:09:05;3.40;99.90
14995;DHT22;7593;49.006;8.372;2024-03-02T05:11:32;3.30;99.90
14995;DHT22;7593;49.006;8.372;2024-03-02T05:14:20;3.20;99.90
14995;DHT22;7593;49.006;8.372;2024-03-02T05:16:47;3.20;99.90
14995;DHT22;7593;49.006;8.372;2024-03-02T05:19:14;3.20;99.90
14995;DHT22;7593;49.006;8.372;2024-03-02T05:21:40;3.10;99.90
14995;DHT22;7593;49.006;8.372;2024-03-02T05:24:07;3.10;99.90
14995;DHT22;7593;49.006;8.372;2024-03-02T05:26:34;3.10;99.90
14995;DHT22;7593;49.006;8.372;2024-03-02T05:29:01;3.00;99.90
14995;DHT22;7593;49.006;8.372;2024-03-02T05:31:29;3.00;99.90
14995;DHT22;7593;49.006;8.372;2024-03-02T05:33:57;3.00;99.90
14995;DHT22;7593;49.006;8.372;2024-03-02T05:36:23;3.00;99.90
14995;DHT22;7593;49.006;8.372;2024-03-02T05:38:50;2.90;99.90
14995;DHT22;7593;49.006;8.372;2024-03-02T05:41:17;2.90;99.90
14995;DHT22;7593;49.006;8.372;2024-03-02T05:43:43;2.90;99.90
14995;DHT22;7593;49.006;8.372;2024-03-02T05:46:10;2.80;99.90
14995;DHT22;7593;49.006;8.372;2024-03-02T05:48:38;2.80;99.90
14995;DHT22;7593;49.006;8.372;2024-03-02T05:51:05;2.80;99.90
14995;DHT22;7593;49.006;8.372;2024-03-02T05:53:32;2.70;99.90
14995;DHT22;7593;49.006;8.372;2024-03-02T05:55:59;2.70;99.90
14995;DHT22;7593;49.006;8.372;2024-03-02T05:58:25;2.70;99.90
14995;DHT22;7593;49.006;8.372;2024-03-02T06:01:03;2.70;99.90
14995;DHT22;7593;49.006;8.372;2024-03-02T06:03:31;2.70;99.90
14995;DHT22;7593;49.006;8.372;2024-03-02T06:05:59;2.70;99.90
14995;DHT22;7593;49.006;8.372;2024-03-02T06:08:26;2.70;99.90
14995;DHT22;7593;49.006;8.372;2024-03-02T06:10:52;2.60;99.90
14995;DHT22;7593;49.006;8.372;2024-03-02T06:13:19;2.60;99.90
14995;DHT22;7593;49.006;8.372;2024-03-02T06:15:46;2.60;99.90
14995;DHT22;7593;49.006;8.372;2024-03-02T06:18:13;2.60;99.90
14995;DHT22;7593;49.006;8.372;2024-03-02T06:20:39;2.70;99.90
14995;DHT22;7593;49.006;8.372;2024-03-02T06:23:07;2.70;99.90
14995;DHT22;7593;49.006;8.372;2024-03-02T06:25:34;2.70;99.90
14995;DHT22;7593;49.006;8.372;2024-03-02T06:28:01;2.70;99.90
14995;DHT22;7593;49.006;8.372;2024-03-02T06:30:29;2.80;99.90
14995;DHT22;7593;49.006;8.372;2024-03-02T06:32:56;2.80;99.90
14995;DHT22;7593;49.006;8.372;2024-03-02T06:35:23;2.80;99.90
14995;DHT22;7593;49.006;8.372;2024-03-02T06:37:49;2.80;99.90
14995;DHT22;7593;49.006;8.372;2024-03-02T06:40:18;2.80;99.90
14995;DHT22;7593;49.006;8.372;2024-03-02T06:42:44;2.90;99.90
14995;DHT22;7593;49.006;8.372;2024-03-02T06:45:11;2.90;99.90
14995;DHT22;7593;49.006;8.372;2024-03-02T06:47:38;2.90;99.90
14995;DHT22;7593;49.006;8.372;2024-03-02T06:50:05;2.90;99.90
14995;DHT22;7593;49.006;8.372;2024-03-02T06:52:32;3.00;99.90
14995;DHT22;7593;49.006;8.372;2024-03-02T06:54:59;2.90;99.90
14995;DHT22;7593;49.006;8.372;2024-03-02T06:57:27;2.90;99.90
14995;DHT22;7593;49.006;8.372;2024-03-02T06:59:54;2.90;99.90
14995;DHT22;7593;49.006;8.372;2024-03-02T07:02:24;2.90;99.90
14995;DHT22;7593;49.006;8.372;2024-03-02T07:04:52;2.90;99.90
14995;DHT22;7593;49.006;8.372;2024-03-02T07:07:19;2.80;99.90
14995;DHT22;7593;49.006;8.372;2024-03-02T07:09:48;2.90;99.90
14995;DHT22;7593;49.006;8.372;2024-03-02T07:12:15;2.90;99.90
14995;DHT22;7593;49.006;8.372;2024-03-02T07:14:43;3.00;99.90
14995;DHT22;7593;49.006;8.372;2024-03-02T07:17:44;3.00;99.90
14995;DHT22;7593;49.006;8.372;2024-03-02T07:20:11;3.40;99.90
14995;DHT22;7593;49.006;8.372;2024-03-02T07:22:38;3.80;99.90
14995;DHT22;7593;49.006;8.372;2024-03-02T07:25:05;4.20;99.90
14995;DHT22;7593;49.006;8.372;2024-03-02T07:27:33;4.60;99.90
14995;DHT22;7593;49.006;8.372;2024-03-02T07:30:02;5.10;99.90
14995;DHT22;7593;49.006;8.372;2024-03-02T07:32:28;5.60;99.90
14995;DHT22;7593;49.006;8.372;2024-03-02T07:34:55;6.30;99.90
14995;DHT22;7593;49.006;8.372;2024-03-02T07:37:22;6.80;99.90
14995;DHT22;7593;49.006;8.372;2024-03-02T07:39:49;7.40;99.90
14995;DHT22;7593;49.006;8.372;2024-03-02T07:42:15;7.90;99.90
14995;DHT22;7593;49.006;8.372;2024-03-02T07:44:43;8.50;99.90
14995;DHT22;7593;49.006;8.372;2024-03-02T07:47:11;9.00;99.90
14995;DHT22;7593;49.006;8.372;2024-03-02T07:49:38;9.40;99.90
14995;DHT22;7593;49.006;8.372;2024-03-02T07:52:05;9.80;99.90
14995;DHT22;7593;49.006;8.372;2024-03-02T07:54:32;10.20;99.90
14995;DHT22;7593;49.006;8.372;2024-03-02T07:56:59;10.80;99.90
14995;DHT22;7593;49.006;8.372;2024-03-02T07:59:26;11.10;99.90
14995;DHT22;7593;49.006;8.372;2024-03-02T08:01:55;11.40;99.90
14995;DHT22;7593;49.006;8.372;2024-03-02T08:04:23;11.80;99.90
14995;DHT22;7593;49.006;8.372;2024-03-02T08:06:50;12.10;99.90
14995;DHT22;7593;49.006;8.372;2024-03-02T08:09:17;12.50;99.90
14995;DHT22;7593;49.006;8.372;2024-03-02T08:11:44;12.70;99.90
14995;DHT22;7593;49.006;8.372;2024-03-02T08:14:11;12.80;99.90
14995;DHT22;7593;49.006;8.372;2024-03-02T08:16:40;12.90;99.90
14995;DHT22;7593;49.006;8.372;2024-03-02T08:19:07;13.00;99.90
14995;DHT22;7593;49.006;8.372;2024-03-02T08:21:38;12.90;99.90
14995;DHT22;7593;49.006;8.372;2024-03-02T08:24:06;12.90;99.90
14995;DHT22;7593;49.006;8.372;2024-03-02T08:26:33;12.90;99.90
14995;DHT22;7593;49.006;8.372;2024-03-02T08:29:01;12.90;99.90
14995;DHT22;7593;49.006;8.372;2024-03-02T08:31:29;13.10;99.90
14995;DHT22;7593;49.006;8.372;2024-03-02T08:33:55;13.30;99.90
14995;DHT22;7593;49.006;8.372;2024-03-02T08:36:24;13.50;99.80
14995;DHT22;7593;49.006;8.372;2024-03-02T08:38:52;13.60;99.70
14995;DHT22;7593;49.006;8.372;2024-03-02T08:41:19;13.70;99.30
14995;DHT22;7593;49.006;8.372;2024-03-02T08:43:45;13.90;98.90
14995;DHT22;7593;49.006;8.372;2024-03-02T08:46:12;14.00;98.40
14995;DHT22;7593;49.006;8.372;2024-03-02T08:48:39;13.90;97.90
14995;DHT22;7593;49.006;8.372;2024-03-02T08:51:16;13.90;97.90
14995;DHT22;7593;49.006;8.372;2024-03-02T08:53:47;14.00;97.50
14995;DHT22;7593;49.006;8.372;2024-03-02T08:56:18;13.90;97.10
14995;DHT22;7593;49.006;8.372;2024-03-02T08:58:46;13.90;97.80
14995;DHT22;7593;49.006;8.372;2024-03-02T09:01:18;13.80;97.90
14995;DHT22;7593;49.006;8.372;2024-03-02T09:03:48;14.00;98.10
14995;DHT22;7593;49.006;8.372;2024-03-02T09:06:23;14.10;97.40
14995;DHT22;7593;49.006;8.372;2024-03-02T09:08:52;14.30;97.30
14995;DHT22;7593;49.006;8.372;2024-03-02T09:11:25;14.40;97.50
14995;DHT22;7593;49.006;8.372;2024-03-02T09:13:57;14.60;97.10
14995;DHT22;7593;49.006;8.372;2024-03-02T09:16:32;14.60;97.10
14995;DHT22;7593;49.006;8.372;2024-03-02T09:19:00;14.70;96.60
14995;DHT22;7593;49.006;8.372;2024-03-02T09:21:36;14.70;96.60
14995;DHT22;7593;49.006;8.372;2024-03-02T09:24:05;14.80;96.40
14995;DHT22;7593;49.006;8.372;2024-03-02T09:26:35;14.70;96.50
14995;DHT22;7593;49.006;8.372;2024-03-02T09:29:03;14.70;96.50
14995;DHT22;7593;49.006;8.372;2024-03-02T09:31:39;14.70;97.00
14995;DHT22;7593;49.006;8.372;2024-03-02T09:34:08;14.80;97.10
14995;DHT22;7593;49.006;8.372;2024-03-02T09:36:38;14.90;96.60
14995;DHT22;7593;49.006;8.372;2024-03-02T09:39:07;15.10;96.50
14995;DHT22;7593;49.006;8.372;2024-03-02T09:41:36;15.20;96.10
14995;DHT22;7593;49.006;8.372;2024-03-02T09:44:04;15.40;95.60
14995;DHT22;7593;49.006;8.372;2024-03-02T09:46:32;15.40;95.80
14995;DHT22;7593;49.006;8.372;2024-03-02T09:48:59;15.50;95.60
14995;DHT22;7593;49.006;8.372;2024-03-02T09:51:26;15.60;95.40
14995;DHT22;7593;49.006;8.372;2024-03-02T09:53:54;15.70;95.20
14995;DHT22;7593;49.006;8.372;2024-03-02T09:56:21;15.80;95.10
14995;DHT22;7593;49.006;8.372;2024-03-02T09:58:50;15.80;95.20
14995;DHT22;7593;49.006;8.372;2024-03-02T10:01:17;15.90;95.20
14995;DHT22;7593;49.006;8.372;2024-03-02T10:03:45;16.20;94.80
14995;DHT22;7593;49.006;8.372;2024-03-02T10:06:22;16.30;94.40
14995;DHT22;7593;49.006;8.372;2024-03-02T10:08:49;16.20;94.30
14995;DHT22;7593;49.006;8.372;2024-03-02T10:11:26;16.10;94.30
14995;DHT22;7593;49.006;8.372;2024-03-02T10:14:05;15.80;94.60
14995;DHT22;7593;49.006;8.372;2024-03-02T10:16:34;15.70;94.90
14995;DHT22;7593;49.006;8.372;2024-03-02T10:19:16;16.00;94.70
14995;DHT22;7593;49.006;8.372;2024-03-02T10:21:43;16.20;94.60
14995;DHT22;7593;49.006;8.372;2024-03-02T10:24:10;16.50;94.10
14995;DHT22;7593;49.006;8.372;2024-03-02T10:26:38;16.70;93.80
14995;DHT22;7593;49.006;8.372;2024-03-02T10:29:08;16.90;93.60
14995;DHT22;7593;49.006;8.372;2024-03-02T10:31:37;17.10;93.60
14995;DHT22;7593;49.006;8.372;2024-03-02T10:34:04;17.30;93.60
14995;DHT22;7593;49.006;8.372;2024-03-02T10:36:31;17.50;93.10
14995;DHT22;7593;49.006;8.372;2024-03-02T10:38:58;17.60;92.70
14995;DHT22;7593;49.006;8.372;2024-03-02T10:41:26;17.70;92.70
14995;DHT22;7593;49.006;8.372;2024-03-02T10:43:53;17.70;92.40
14995;DHT22;7593;49.006;8.372;2024-03-02T10:46:28;17.60;92.50
14995;DHT22;7593;49.006;8.372;2024-03-02T10:48:55;17.60;92.70
14995;DHT22;7593;49.006;8.372;2024-03-02T10:51:24;17.90;92.00
14995;DHT22;7593;49.006;8.372;2024-03-02T10:53:51;18.00;91.70
14995;DHT22;7593;49.006;8.372;2024-03-02T10:56:22;17.90;91.60
14995;DHT22;7593;49.006;8.372;2024-03-02T10:59:01;17.90;92.00
14995;DHT22;7593;49.006;8.372;2024-03-02T11:01:32;18.10;91.80
14995;DHT22;7593;49.006;8.372;2024-03-02T11:03:59;18.20;91.70
14995;DHT22;7593;49.006;8.372;2024-03-02T11:06:29;18.30;91.60
14995;DHT22;7593;49.006;8.372;2024-03-02T11:09:00;18.60;91.70
14995;DHT22;7593;49.006;8.372;2024-03-02T11:11:36;18.80;91.50
14995;DHT22;7593;49.006;8.372;2024-03-02T11:14:05;19.00;91.00
14995;DHT22;7593;49.006;8.372;2024-03-02T11:16:37;19.20;90.80
14995;DHT22;7593;49.006;8.372;2024-03-02T11:19:05;19.40;90.40
14995;DHT22;7593;49.006;8.372;2024-03-02T11:21:33;19.40;90.10
14995;DHT22;7593;49.006;8.372;2024-03-02T11:24:00;19.50;89.80
14995;DHT22;7593;49.006;8.372;2024-03-02T11:26:28;19.60;88.90
14995;DHT22;7593;49.006;8.372;2024-03-02T11:28:55;19.90;84.50
14995;DHT22;7593;49.006;8.372;2024-03-02T11:31:58;19.60;83.60
14995;DHT22;7593;49.006;8.372;2024-03-02T11:34:29;19.20;84.20
14995;DHT22;7593;49.006;8.372;2024-03-02T11:36:56;19.40;84.30
14995;DHT22;7593;49.006;8.372;2024-03-02T11:39:24;19.50;84.40
14995;DHT22;7593;49.006;8.372;2024-03-02T11:41:51;19.60;83.30
14995;DHT22;7593;49.006;8.372;2024-03-02T11:44:18;19.60;82.70
14995;DHT22;7593;49.006;8.372;2024-03-02T11:46:45;19.80;83.00
14995;DHT22;7593;49.006;8.372;2024-03-02T11:49:15;19.60;82.60
14995;DHT22;7593;49.006;8.372;2024-03-02T11:52:00;19.60;83.60
14995;DHT22;7593;49.006;8.372;2024-03-02T11:54:28;20.10;83.20
14995;DHT22;7593;49.006;8.372;2024-03-02T11:56:58;20.40;83.00
14995;DHT22;7593;49.006;8.372;2024-03-02T11:59:26;20.60;82.20
14995;DHT22;7593;49.006;8.372;2024-03-02T12:01:53;20.90;81.30
14995;DHT22;7593;49.006;8.372;2024-03-02T12:04:23;21.20;81.70
14995;DHT22;7593;49.006;8.372;2024-03-02T12:06:54;21.20;80.90
14995;DHT22;7593;49.006;8.372;2024-03-02T12:09:22;21.20;81.20
14995;DHT22;7593;49.006;8.372;2024-03-02T12:11:56;21.30;80.50
14995;DHT22;7593;49.006;8.372;2024-03-02T12:14:27;21.00;79.40
14995;DHT22;7593;49.006;8.372;2024-03-02T12:16:54;20.90;80.70
14995;DHT22;7593;49.006;8.372;2024-03-02T12:19:25;21.10;80.60
14995;DHT22;7593;49.006;8.372;2024-03-02T12:21:52;21.40;81.10
14995;DHT22;7593;49.006;8.372;2024-03-02T12:24:20;21.60;78.80
14995;DHT22;7593;49.006;8.372;2024-03-02T12:26:48;21.50;78.60
14995;DHT22;7593;49.006;8.372;2024-03-02T12:29:15;21.50;78.90
14995;DHT22;7593;49.006;8.372;2024-03-02T12:31:42;22.00;77.90
14995;DHT22;7593;49.006;8.372;2024-03-02T12:34:12;22.60;77.20
14995;DHT22;7593;49.006;8.372;2024-03-02T12:36:40;22.60;75.50
14995;DHT22;7593;49.006;8.372;2024-03-02T12:39:07;22.00;75.70
14995;DHT22;7593;49.006;8.372;2024-03-02T12:41:36;21.50;76.80
14995;DHT22;7593;49.006;8.372;2024-03-02T12:44:03;21.60;77.10
14995;DHT22;7593;49.006;8.372;2024-03-02T12:46:30;22.10;77.50
14995;DHT22;7593;49.006;8.372;2024-03-02T12:48:57;22.80;76.00
14995;DHT22;7593;49.006;8.372;2024-03-02T12:51:24;23.30;74.60
14995;DHT22;7593;49.006;8.372;2024-03-02T12:53:54;23.60;73.80
14995;DHT22;7593;49.006;8.372;2024-03-02T12:56:21;23.90;73.00
14995;DHT22;7593;49.006;8.372;2024-03-02T12:58:53;24.00;72.20
14995;DHT22;7593;49.006;8.372;2024-03-02T13:01:20;24.30;71.80
14995;DHT22;7593;49.006;8.372;2024-03-02T13:03:48;24.50;71.10
14995;DHT22;7593;49.006;8.372;2024-03-02T13:06:17;24.40;70.80
14995;DHT22;7593;49.006;8.372;2024-03-02T13:08:45;24.10;70.50
14995;DHT22;7593;49.006;8.372;2024-03-02T13:11:13;23.70;71.40
14995;DHT22;7593;49.006;8.372;2024-03-02T13:13:40;23.40;71.70
14995;DHT22;7593;49.006;8.372;2024-03-02T13:16:08;23.50;71.80
14995;DHT22;7593;49.006;8.372;2024-03-02T13:18:36;23.50;72.10
14995;DHT22;7593;49.006;8.372;2024-03-02T13:21:03;23.90;72.00
14995;DHT22;7593;49.006;8.372;2024-03-02T13:23:30;24.20;71.80
14995;DHT22;7593;49.006;8.372;2024-03-02T13:25:57;24.50;70.80
14995;DHT22;7593;49.006;8.372;2024-03-02T13:28:26;24.60;70.80
14995;DHT22;7593;49.006;8.372;2024-03-02T13:30:53;24.70;70.20
14995;DHT22;7593;49.006;8.372;2024-03-02T13:33:19;24.60;69.60
14995;DHT22;7593;49.006;8.372;2024-03-02T13:35:48;24.20;69.90
14995;DHT22;7593;49.006;8.372;2024-03-02T13:38:15;23.90;71.30
14995;DHT22;7593;49.006;8.372;2024-03-02T13:40:42;23.60;71.40
14995;DHT22;7593;49.006;8.372;2024-03-02T13:43:09;23.50;71.50
14995;DHT22;7593;49.006;8.372;2024-03-02T13:45:38;23.50;71.00
14995;DHT22;7593;49.006;8.372;2024-03-02T13:48:06;23.30;71.30
14995;DHT22;7593;49.006;8.372;2024-03-02T13:50:32;23.20;71.60
14995;DHT22;7593;49.006;8.372;2024-03-02T13:52:59;22.90;71.70
14995;DHT22;7593;49.006;8.372;2024-03-02T13:55:26;22.60;72.30
14995;DHT22;7593;49.006;8.372;2024-03-02T13:57:53;22.50;72.90
14995;DHT22;7593;49.006;8.372;2024-03-02T14:00:20;22.30;73.00
14995;DHT22;7593;49.006;8.372;2024-03-02T14:02:48;22.00;73.80
14995;DHT22;7593;49.006;8.372;2024-03-02T14:05:15;21.70;74.70
14995;DHT22;7593;49.006;8.372;2024-03-02T14:07:42;21.60;75.10
14995;DHT22;7593;49.006;8.372;2024-03-02T14:10:09;21.50;75.40
14995;DHT22;7593;49.006;8.372;2024-03-02T14:12:36;21.40;75.90
14995;DHT22;7593;49.006;8.372;2024-03-02T14:15:04;21.40;76.10
14995;DHT22;7593;49.006;8.372;2024-03-02T14:17:31;21.40;76.10
14995;DHT22;7593;49.006;8.372;2024-03-02T14:19:59;21.40;76.10
14995;DHT22;7593;49.006;8.372;2024-03-02T14:22:26;21.10;76.60
14995;DHT22;7593;49.006;8.372;2024-03-02T14:24:53;20.80;77.40
14995;DHT22;7593;49.006;8.372;2024-03-02T14:27:19;20.40;77.90
14995;DHT22;7593;49.006;8.372;2024-03-02T14:29:46;20.10;78.60
14995;DHT22;7593;49.006;8.372;2024-03-02T14:32:13;19.80;79.40
14995;DHT22;7593;49.006;8.372;2024-03-02T14:34:40;19.50;80.30
14995;DHT22;7593;49.006;8.372;2024-03-02T14:37:08;19.30;81.10
14995;DHT22;7593;49.006;8.372;2024-03-02T14:39:35;19.10;81.60
14995;DHT22;7593;49.006;8.372;2024-03-02T14:42:02;18.90;82.20
14995;DHT22;7593;49.006;8.372;2024-03-02T14:44:29;18.70;82.90
14995;DHT22;7593;49.006;8.372;2024-03-02T14:46:55;18.60;83.20
14995;DHT22;7593;49.006;8.372;2024-03-02T14:49:23;18.50;83.50
14995;DHT22;7593;49.006;8.372;2024-03-02T14:51:50;18.40;83.90
14995;DHT22;7593;49.006;8.372;2024-03-02T14:54:19;18.30;84.30
14995;DHT22;7593;49.006;8.372;2024-03-02T14:56:45;18.20;84.70
14995;DHT22;7593;49.006;8.372;2024-03-02T14:59:12;18.10;85.30
14995;DHT22;7593;49.006;8.372;2024-03-02T15:01:39;18.10;85.20
14995;DHT22;7593;49.006;8.372;2024-03-02T15:04:06;18.00;85.40
14995;DHT22;7593;49.006;8.372;2024-03-02T15:06:33;17.90;85.70
14995;DHT22;7593;49.006;8.372;2024-03-02T15:08:59;17.80;86.10
14995;DHT22;7593;49.006;8.372;2024-03-02T15:11:28;17.70;86.50
14995;DHT22;7593;49.006;8.372;2024-03-02T15:13:55;17.60;87.10
14995;DHT22;7593;49.006;8.372;2024-03-02T15:16:22;17.50;87.60
14995;DHT22;7593;49.006;8.372;2024-03-02T15:18:49;17.40;88.00
14995;DHT22;7593;49.006;8.372;2024-03-02T15:21:16;17.30;88.70
14995;DHT22;7593;49.006;8.372;2024-03-02T15:23:44;17.20;88.70
14995;DHT22;7593;49.006;8.372;2024-03-02T15:26:11;17.20;89.40
14995;DHT22;7593;49.006;8.372;2024-03-02T15:28:39;17.10;89.60
14995;DHT22;7593;49.006;8.372;2024-03-02T15:31:06;17.00;89.80
14995;DHT22;7593;49.006;8.372;2024-03-02T15:33:33;17.00;90.10
14995;DHT22;7593;49.006;8.372;2024-03-02T15:36:00;16.90;90.30
14995;DHT22;7593;49.006;8.372;2024-03-02T15:38:27;16.80;90.40
14995;DHT22;7593;49.006;8.372;2024-03-02T15:40:54;16.70;90.50
14995;DHT22;7593;49.006;8.372;2024-03-02T15:43:20;16.70;90.70
14995;DHT22;7593;49.006;8.372;2024-03-02T15:45:50;16.60;90.90
14995;DHT22;7593;49.006;8.372;2024-03-02T15:48:17;16.50;91.10
14995;DHT22;7593;49.006;8.372;2024-03-02T15:50:44;16.50;91.20
14995;DHT22;7593;49.006;8.372;2024-03-02T15:53:11;16.40;91.30
14995;DHT22;7593;49.006;8.372;2024-03-02T15:55:39;16.40;91.50
14995;DHT22;7593;49.006;8.372;2024-03-02T15:58:06;16.30;91.70
14995;DHT22;7593;49.006;8.372;2024-03-02T16:00:33;16.30;91.80